.
WxDataArchive / Data Records for 2006-06-16
2006-06-15 June 2006 2006-06-17

Data Records for Friday, 16 June 2006

Time	Temp	Chill	HIndex	Humid	Dewpt	 Wind 	HiWind	WindDir	Rain 	Barom 
-----	----	-----	------	-----	-----	------	------	-------	-----	----- 
00:00	66.8	66.8	66.8	67	55.5	0	0	---	0.00	30.070 
00:05	66.6	66.6	66.6	67	55.3	0	1	90	0.00	30.070 
00:10	66.8	66.8	66.8	65	54.6	0	2	90	0.00	30.070 
00:15	66.9	66.9	66.9	65	54.7	0	1	90	0.00	30.065 
00:20	67.1	67.1	67.1	66	55.4	0	0	---	0.00	30.065 
00:25	66.8	66.8	66.8	66	55.1	0	0	---	0.00	30.065 
00:30	66.4	66.4	66.4	67	55.1	0	0	---	0.00	30.068 
00:35	66.0	66.0	66.0	69	55.5	0	0	---	0.00	30.068 
00:40	65.6	65.6	65.6	69	55.1	0	0	---	0.00	30.068 
00:45	65.3	65.3	65.3	69	54.9	0	0	---	0.00	30.081 
00:50	65.0	65.0	65.0	70	55.0	0	0	---	0.00	30.081 
00:55	64.7	64.7	64.7	72	55.5	0	0	---	0.00	30.081 
01:00	64.5	64.5	64.5	72	55.3	0	0	---	0.00	30.081 
01:05	64.2	64.2	64.2	73	55.4	0	0	---	0.00	30.081 
01:10	63.9	63.9	63.9	73	55.1	0	0	---	0.00	30.081 
01:15	63.5	63.5	63.5	75	55.4	0	0	---	0.00	30.078 
01:20	63.2	63.2	63.2	76	55.5	0	0	---	0.00	30.078 
01:25	63.1	63.1	63.1	77	55.8	0	0	---	0.00	30.078 
01:30	62.9	62.9	62.9	77	55.6	0	0	---	0.00	30.077 
01:35	62.7	62.7	62.7	77	55.4	0	0	---	0.00	30.077 
01:40	62.4	62.4	62.4	78	55.4	0	0	---	0.00	30.077 
01:45	62.3	62.3	62.3	79	55.7	0	0	---	0.00	30.077 
01:50	62.1	62.1	62.1	79	55.5	0	1	90	0.00	30.077 
01:55	62.0	62.0	62.0	78	55.1	0	0	---	0.00	30.077 
02:00	62.1	62.1	62.1	79	55.5	0	0	---	0.00	30.076 
02:05	62.1	62.1	62.1	79	55.5	0	0	---	0.00	30.076 
02:10	62.1	62.1	62.1	79	55.5	0	0	---	0.00	30.076 
02:15	62.0	62.0	62.0	79	55.4	0	0	---	0.00	30.079 
02:20	61.8	61.8	61.8	79	55.2	0	0	---	0.00	30.079 
02:25	61.6	61.6	61.6	79	55.0	0	0	---	0.00	30.079 
02:30	61.5	61.5	61.5	79	54.9	0	0	---	0.00	30.087 
02:35	61.3	61.3	61.3	79	54.7	0	0	---	0.00	30.087 
02:40	61.3	61.3	61.3	79	54.7	0	0	---	0.00	30.087 
02:45	61.2	61.2	61.2	80	55.0	0	0	---	0.00	30.088 
02:50	61.0	61.0	61.0	80	54.8	0	0	---	0.00	30.088 
02:55	60.9	60.9	60.9	81	55.0	0	0	---	0.00	30.088 
03:00	60.9	60.9	60.9	81	55.0	0	0	---	0.00	30.087 
03:05	60.7	60.7	60.7	81	54.8	0	0	---	0.00	30.087 
03:10	60.5	60.5	60.5	81	54.6	0	0	---	0.00	30.087 
03:15	60.4	60.4	60.4	81	54.5	0	0	---	0.00	30.089 
03:20	60.2	60.2	60.2	82	54.7	0	0	---	0.00	30.089 
03:25	60.1	60.1	60.1	82	54.6	0	0	---	0.00	30.089 
03:30	60.1	60.1	60.1	83	54.9	0	1	90	0.00	30.087 
03:35	59.9	59.9	59.9	82	54.4	0	0	---	0.00	30.087 
03:40	59.9	59.9	59.9	83	54.7	0	0	---	0.00	30.087 
03:45	59.8	59.8	59.8	83	54.6	0	0	---	0.00	30.087 
03:50	59.6	59.6	59.6	84	54.8	0	0	---	0.00	30.087 
03:55	59.6	59.6	59.6	83	54.4	0	0	---	0.00	30.087 
04:00	59.5	59.5	59.5	84	54.7	0	0	---	0.00	30.089 
04:05	59.3	59.3	59.3	84	54.5	0	0	---	0.00	30.089 
04:10	59.3	59.3	59.3	84	54.5	0	1	90	0.00	30.089 
04:15	59.3	59.3	59.3	84	54.5	0	0	---	0.00	30.087 
04:20	59.2	59.2	59.2	84	54.4	0	0	---	0.00	30.087 
04:25	59.2	59.2	59.2	84	54.4	0	0	---	0.00	30.087 
04:30	59.2	59.2	59.2	84	54.4	0	0	---	0.00	30.087 
04:35	59.0	59.0	59.0	84	54.2	0	0	---	0.00	30.087 
04:40	59.0	59.0	59.0	84	54.2	0	0	---	0.00	30.087 
04:45	59.0	59.0	59.0	84	54.2	0	0	---	0.00	30.089 
04:50	58.9	58.9	58.9	84	54.1	0	0	---	0.00	30.089 
04:55	59.0	59.0	59.0	84	54.2	0	0	---	0.00	30.089 
05:00	58.9	58.9	58.9	84	54.1	0	0	---	0.00	30.092 
05:05	59.0	59.0	59.0	84	54.2	0	0	---	0.00	30.092 
05:10	59.0	59.0	59.0	84	54.2	0	0	---	0.00	30.092 
05:15	59.0	59.0	59.0	84	54.2	0	0	---	0.00	30.096 
05:20	59.2	59.2	59.2	84	54.4	0	0	---	0.00	30.096 
05:25	59.3	59.3	59.3	84	54.5	0	0	---	0.00	30.096 
05:30	59.5	59.5	59.5	83	54.3	0	0	---	0.00	30.098 
05:35	59.6	59.6	59.6	83	54.4	0	0	---	0.00	30.098 
05:40	59.8	59.8	59.8	83	54.6	0	0	---	0.00	30.098 
05:45	59.9	59.9	59.9	82	54.4	0	0	---	0.00	30.104 
05:50	60.1	60.1	60.1	82	54.6	0	0	---	0.00	30.104 
05:55	60.2	60.2	60.2	81	54.3	0	0	---	0.00	30.104 
06:00	60.4	60.4	60.4	81	54.5	0	0	---	0.00	30.111 
06:05	60.5	60.5	60.5	81	54.6	0	0	---	0.00	30.111 
06:10	60.5	60.5	60.5	81	54.6	0	0	---	0.00	30.111 
06:15	60.7	60.7	60.7	81	54.8	0	0	---	0.00	30.117 
06:20	61.0	61.0	61.0	81	55.1	0	0	---	0.00	30.117 
06:25	61.2	61.2	61.2	80	55.0	0	0	---	0.00	30.117 
06:30	61.2	61.2	61.2	79	54.6	0	0	---	0.00	30.121 
06:35	61.3	61.3	61.3	79	54.7	0	0	---	0.00	30.121 
06:40	61.5	61.5	61.5	81	55.6	0	0	---	0.00	30.121 
06:45	61.8	61.8	61.8	80	55.6	0	0	---	0.00	30.122 
06:50	61.8	61.8	61.8	80	55.6	0	0	---	0.00	30.122 
06:55	62.0	62.0	62.0	80	55.8	0	0	---	0.00	30.122 
07:00	62.1	62.1	62.1	80	55.9	0	0	---	0.00	30.124 
07:05	62.3	62.3	62.3	81	56.4	0	0	---	0.00	30.124 
07:10	62.6	62.6	62.6	81	56.7	0	0	---	0.00	30.124 
07:15	62.7	62.7	62.7	77	55.4	0	0	---	0.00	30.129 
07:20	63.2	63.2	63.2	79	56.6	0	1	90	0.00	30.129 
07:25	63.5	63.5	63.5	77	56.2	0	0	---	0.00	30.129 
07:30	63.9	63.9	63.9	76	56.2	0	0	---	0.00	30.135 
07:35	64.2	64.2	64.2	76	56.5	0	0	---	0.00	30.135 
07:40	64.3	64.3	64.3	75	56.2	0	0	---	0.00	30.135 
07:45	64.7	64.7	64.7	73	55.8	0	0	---	0.00	30.138 
07:50	65.2	65.2	65.2	71	55.6	0	1	90	0.00	30.138 
07:55	65.5	65.5	65.5	72	56.2	0	0	---	0.00	30.138 
08:00	65.8	65.8	65.8	70	55.7	0	1	90	0.00	30.144 
08:05	66.1	66.1	66.1	69	55.6	0	1	90	0.00	30.144 
08:10	66.4	66.4	66.4	68	55.5	0	2	90	0.00	30.144 
08:15	66.6	66.6	66.6	68	55.7	0	2	90	0.00	30.137 
08:20	66.9	66.9	66.9	70	56.8	0	1	90	0.00	30.137 
08:25	67.1	67.1	67.1	68	56.2	0	2	90	0.00	30.137 
08:30	67.4	67.4	67.4	66	55.6	1	3	90	0.00	30.137 
08:35	67.8	67.8	67.8	66	56.0	1	2	135	0.00	30.137 
08:40	68.1	68.1	68.1	67	56.7	0	2	248	0.00	30.137 
08:45	68.3	68.3	68.3	65	56.1	1	3	68	0.00	30.142 
08:50	68.6	68.6	68.6	64	55.9	1	4	248	0.00	30.142 
08:55	68.9	68.9	68.9	64	56.2	1	3	22	0.00	30.142 
09:00	69.4	69.4	69.4	63	56.2	0	2	270	0.00	30.137 
09:05	69.9	69.9	69.9	64	57.2	0	1	270	0.00	30.137 
09:10	70.4	70.4	70.4	62	56.7	0	2	270	0.00	30.137 
09:15	71.1	71.1	71.1	60	56.5	1	4	248	0.00	30.140 
09:20	71.6	71.6	71.6	61	57.4	1	4	225	0.00	30.140 
09:25	71.8	71.8	71.8	61	57.6	1	3	68	0.00	30.140 
09:30	72.3	72.3	72.3	61	58.1	1	3	90	0.00	30.137 
09:35	73.0	73.0	73.0	61	58.7	1	3	90	0.00	30.137 
09:40	73.9	73.9	73.9	55	56.7	2	4	90	0.00	30.137 
09:45	74.6	74.6	74.6	56	57.8	1	4	135	0.00	30.131 
09:50	74.6	74.6	74.6	57	58.3	2	4	270	0.00	30.131 
09:55	74.6	74.6	74.6	54	56.8	1	5	248	0.00	30.131 
10:00	74.7	74.7	74.7	56	57.9	2	5	90	0.00	30.130 
10:05	75.1	75.1	77.6	56	58.3	1	4	270	0.00	30.130 
10:10	75.6	75.6	77.8	55	58.3	2	7	112	0.00	30.130 
10:15	76.3	76.3	78.3	57	59.9	1	3	68	0.00	30.130 
10:20	76.7	76.7	78.5	56	59.8	2	5	90	0.00	30.130 
10:25	77.2	77.2	78.8	54	59.2	2	4	112	0.00	30.130 
10:30	77.4	77.4	78.9	52	58.4	1	5	270	0.00	30.121 
10:35	77.7	77.7	79.2	53	59.2	1	3	270	0.00	30.121 
10:40	77.9	77.9	79.2	50	57.7	2	5	248	0.00	30.121 
10:45	78.5	78.5	79.6	50	58.3	2	9	68	0.00	30.121 
10:50	78.8	78.8	79.8	50	58.6	2	4	248	0.00	30.121 
10:55	79.2	79.2	80.1	50	58.9	1	4	112	0.00	30.121 
11:00	79.2	79.2	80.1	49	58.4	3	6	248	0.00	30.121 
11:05	78.8	78.8	79.7	49	58.0	3	7	270	0.00	30.121 
11:10	79.0	79.0	80.1	52	59.8	1	3	270	0.00	30.121 
11:15	79.6	79.6	80.3	48	58.2	1	4	315	0.00	30.122 
11:20	79.9	79.9	80.8	51	60.1	1	3	270	0.00	30.122 
11:25	80.1	80.1	80.6	47	58.0	3	7	270	0.00	30.122 
11:30	80.5	80.5	80.8	46	57.8	3	5	270	0.00	30.125 
11:35	80.5	80.5	80.9	47	58.4	3	7	270	0.00	30.125 
11:40	80.7	80.7	81.1	47	58.6	3	5	270	0.00	30.125 
11:45	80.9	80.9	81.2	46	58.2	3	5	270	0.00	30.121 
11:50	81.2	81.2	81.5	46	58.4	2	5	248	0.00	30.121 
11:55	81.6	81.6	81.7	45	58.2	2	4	270	0.00	30.121 
12:00	82.0	82.0	81.9	44	57.9	1	4	45	0.00	30.114 
12:05	82.8	82.8	83.0	46	59.9	1	3	338	0.00	30.114 
12:10	83.0	83.0	82.9	44	58.8	3	5	248	0.00	30.114 
12:15	83.0	83.0	83.2	46	60.1	2	4	248	0.00	30.114 
12:20	82.8	82.8	82.7	44	58.6	2	5	248	0.00	30.114 
12:25	82.6	82.6	82.5	44	58.4	3	6	270	0.00	30.114 
12:30	82.4	82.4	82.3	44	58.3	3	5	248	0.00	30.114 
12:35	82.6	82.6	82.8	46	59.7	2	5	248	0.00	30.114 
12:40	82.6	82.6	82.8	46	59.7	2	6	248	0.00	30.114 
12:45	83.2	83.2	83.3	45	59.6	1	4	248	0.00	30.106 
12:50	83.6	83.6	83.7	45	60.0	2	4	248	0.00	30.106 
12:55	84.0	84.0	84.3	46	61.0	1	4	248	0.00	30.106 
13:00	84.3	84.3	84.5	45	60.6	1	3	248	0.00	30.098 
13:05	84.5	84.5	84.5	44	60.2	1	3	248	0.00	30.098 
13:10	84.7	84.7	84.7	44	60.3	2	5	270	0.00	30.098 
13:15	84.5	84.5	84.5	44	60.2	2	4	270	0.00	30.099 
13:20	84.1	84.1	84.1	44	59.8	2	5	270	0.00	30.099 
13:25	84.3	84.3	85.1	48	62.4	2	6	90	0.00	30.099 
13:30	85.1	85.1	85.4	45	61.3	1	2	90	0.00	30.093 
13:35	85.3	85.3	85.2	43	60.2	2	5	270	0.00	30.093 
13:40	85.3	85.3	85.5	44	60.9	2	5	270	0.00	30.093 
13:45	85.7	85.7	85.7	43	60.6	1	6	90	0.00	30.081 
13:50	85.7	85.7	85.5	42	59.9	3	9	270	0.00	30.081 
13:55	85.7	85.7	85.5	42	59.9	3	5	270	0.00	30.081 
14:00	85.7	85.7	85.5	42	59.9	2	7	270	0.00	30.081 
14:05	86.1	86.1	85.8	41	59.6	1	5	248	0.00	30.081 
14:10	86.3	86.3	86.5	43	61.1	2	10	315	0.00	30.081 
14:15	86.3	86.3	85.8	40	59.1	2	5	270	0.00	30.080 
14:20	86.3	86.3	86.5	43	61.1	2	6	292	0.00	30.080 
14:25	86.3	86.3	86.2	42	60.5	3	7	270	0.00	30.080 
14:30	86.7	86.7	86.3	40	59.5	2	6	90	0.00	30.070 
14:35	86.7	86.7	87.2	44	62.1	2	5	90	0.00	30.070 
14:40	87.0	87.0	87.4	43	61.8	2	6	248	0.00	30.070 
14:45	86.7	86.7	87.0	43	61.5	2	6	90	0.00	30.069 
14:50	86.7	86.7	86.5	41	60.1	2	5	90	0.00	30.069 
14:55	86.7	86.7	86.5	41	60.1	2	6	90	0.00	30.069 
15:00	86.5	86.5	86.0	40	59.3	3	6	90	0.00	30.065 
15:05	86.5	86.5	86.3	41	60.0	2	5	90	0.00	30.065 
15:10	86.7	86.7	86.0	39	58.7	3	8	90	0.00	30.065 
15:15	87.0	87.0	86.0	37	57.5	3	7	248	0.00	30.064 
15:20	86.7	86.7	86.0	39	58.7	3	7	270	0.00	30.064 
15:25	86.7	86.7	86.5	41	60.1	2	5	112	0.00	30.064 
15:30	87.0	87.0	86.6	40	59.7	2	5	225	0.00	30.056 
15:35	87.4	87.4	86.7	38	58.6	2	5	270	0.00	30.056 
15:40	87.4	87.4	87.6	42	61.5	2	5	90	0.00	30.056 
15:45	87.8	87.8	86.9	37	58.2	2	5	270	0.00	30.048 
15:50	88.4	88.4	87.9	38	59.5	2	5	248	0.00	30.048 
15:55	88.6	88.6	89.3	42	62.5	2	5	112	0.00	30.048 
16:00	88.8	88.8	87.6	35	57.6	2	6	90	0.00	30.047 
16:05	88.4	88.4	88.2	39	60.3	2	5	248	0.00	30.047 
16:10	88.4	88.4	87.2	35	57.2	3	8	248	0.00	30.047 
16:15	88.4	88.4	87.4	36	58.0	2	6	90	0.00	30.037 
16:20	88.6	88.6	87.9	37	59.0	2	5	112	0.00	30.037 
16:25	88.8	88.8	87.4	34	56.8	2	5	68	0.00	30.037 
16:30	88.6	88.6	87.6	36	58.2	3	6	90	0.00	30.036 
16:35	88.4	88.4	87.4	36	58.0	2	6	90	0.00	30.036 
16:40	88.2	88.2	87.9	39	60.1	2	5	248	0.00	30.036 
16:45	88.4	88.4	87.4	36	58.0	3	6	270	0.00	30.035 
16:50	88.4	88.4	87.2	35	57.2	2	6	248	0.00	30.035 
16:55	88.4	88.4	87.2	35	57.2	3	6	248	0.00	30.035 
17:00	88.4	88.4	87.2	35	57.2	2	6	270	0.00	30.025 
17:05	88.6	88.6	87.2	34	56.6	3	5	270	0.00	30.025 
17:10	88.6	88.6	87.6	36	58.2	2	7	90	0.00	30.025 
17:15	88.4	88.4	87.9	38	59.5	3	9	90	0.00	30.020 
17:20	88.2	88.2	87.4	37	58.6	2	6	292	0.00	30.020 
17:25	88.2	88.2	87.4	37	58.6	2	9	90	0.00	30.020 
17:30	88.2	88.2	87.6	38	59.3	1	5	338	0.00	30.018 
17:35	88.2	88.2	86.7	34	56.2	3	6	90	0.00	30.018 
17:40	88.2	88.2	87.9	39	60.1	2	7	112	0.00	30.018 
17:45	88.0	88.0	87.6	39	59.9	2	5	270	0.00	30.018 
17:50	88.0	88.0	87.1	37	58.4	2	4	90	0.00	30.018 
17:55	87.8	87.8	86.9	37	58.2	2	6	270	0.00	30.018 
18:00	87.6	87.6	86.4	36	57.3	2	6	90	0.00	30.017 
18:05	87.4	87.4	86.4	37	57.9	2	6	270	0.00	30.017 
18:10	87.4	87.4	86.4	37	57.9	2	6	270	0.00	30.017 
18:15	87.2	87.2	86.2	37	57.7	3	7	90	0.00	30.015 
18:20	86.7	86.7	85.6	37	57.3	3	6	90	0.00	30.015 
18:25	86.3	86.3	85.2	37	56.9	2	5	270	0.00	30.015 
18:30	85.9	85.9	85.3	40	58.7	1	3	45	0.00	30.010 
18:35	85.7	85.7	84.7	38	57.1	3	7	90	0.00	30.010 
18:40	85.7	85.7	84.7	38	57.1	1	4	90	0.00	30.010 
18:45	85.5	85.5	84.7	39	57.7	1	5	270	0.00	30.005 
18:50	85.1	85.1	84.4	40	58.0	1	4	248	0.00	30.005 
18:55	84.7	84.7	84.0	40	57.7	1	3	270	0.00	30.005 
19:00	84.5	84.5	83.8	40	57.5	1	3	90	0.00	30.007 
19:05	84.3	84.3	83.8	41	58.0	1	6	68	0.00	30.007 
19:10	84.1	84.1	83.4	40	57.1	2	4	90	0.00	30.007 
19:15	84.0	84.0	83.6	42	58.4	1	6	112	0.00	30.003 
19:20	83.8	83.8	83.6	43	58.9	1	3	225	0.00	30.003 
19:25	83.6	83.6	83.2	42	58.0	1	3	68	0.00	30.003 
19:30	83.4	83.4	83.2	43	58.5	1	4	112	0.00	30.003 
19:35	83.4	83.4	83.2	43	58.5	1	2	248	0.00	30.003 
19:40	83.2	83.2	83.0	43	58.3	0	2	248	0.00	30.003 
19:45	83.0	83.0	82.9	44	58.8	0	2	225	0.00	30.005 
19:50	82.8	82.8	82.6	43	58.0	0	2	315	0.00	30.005 
19:55	82.8	82.8	82.9	45	59.3	1	3	112	0.00	30.005 
20:00	82.6	82.6	82.7	45	59.1	0	2	112	0.00	30.003 
20:05	82.6	82.6	82.5	44	58.4	1	5	90	0.00	30.003 
20:10	82.6	82.6	82.7	45	59.1	0	2	0	0.00	30.003 
20:15	82.4	82.4	82.5	45	58.9	1	5	135	0.00	30.002 
20:20	82.4	82.4	82.5	45	58.9	1	3	112	0.00	30.002 
20:25	82.4	82.4	82.3	44	58.3	1	4	90	0.00	30.002 
20:30	82.2	82.2	82.3	45	58.7	1	3	112	0.00	30.000 
20:35	81.8	81.8	82.0	46	59.0	0	2	45	0.00	30.000 
20:40	81.4	81.4	81.8	47	59.2	0	2	270	0.00	30.000 
20:45	81.1	81.1	81.5	47	58.9	0	3	22	0.00	30.002 
20:50	80.7	80.7	81.0	46	58.0	1	3	90	0.00	30.002 
20:55	80.3	80.3	80.9	48	58.8	1	2	90	0.00	30.002 
21:00	80.1	80.1	80.8	49	59.2	1	3	68	0.00	30.004 
21:05	79.8	79.8	80.5	48	58.3	0	2	225	0.00	30.004 
21:10	79.4	79.4	80.8	56	62.3	0	1	225	0.00	30.004 
21:15	78.1	78.1	79.8	60	63.1	0	1	225	0.00	30.000 
21:20	76.5	76.5	78.4	59	61.1	0	3	202	0.00	30.000 
21:25	75.6	75.6	77.7	62	61.6	0	1	90	0.00	30.000 
21:30	74.4	74.4	74.4	65	61.8	0	1	90	0.00	29.999 
21:35	73.3	73.3	73.3	67	61.7	0	1	90	0.00	29.999 
21:40	73.2	73.2	73.2	61	58.9	0	2	90	0.00	29.999 
21:45	73.9	73.9	73.9	58	58.2	0	4	90	0.00	29.997 
21:50	74.0	74.0	74.0	59	58.7	0	2	135	0.00	29.997 
21:55	73.9	73.9	73.9	60	59.1	0	2	135	0.00	29.997 
22:00	73.9	73.9	73.9	61	59.6	0	1	112	0.00	30.000 
22:05	74.2	74.2	74.2	59	58.9	0	2	112	0.00	30.000 
22:10	74.4	74.4	74.4	57	58.2	0	3	112	0.00	30.000 
22:15	74.9	74.9	74.9	58	59.1	0	2	112	0.00	29.996 
22:20	75.1	75.1	77.5	57	58.8	1	3	112	0.00	29.996 
22:25	75.6	75.6	77.8	57	59.3	0	2	112	0.00	29.996 
22:30	75.6	75.6	77.8	58	59.8	1	2	112	0.00	29.995 
22:35	75.8	75.8	78.0	55	58.5	1	4	90	0.00	29.995 
22:40	76.0	76.0	78.1	55	58.6	1	3	90	0.00	29.995 
22:45	75.8	75.8	77.9	57	59.5	0	2	90	0.00	29.993 
22:50	75.4	75.4	77.7	57	59.1	1	4	90	0.00	29.993 
22:55	75.3	75.3	77.6	57	59.0	0	2	22	0.00	29.993 
23:00	75.1	75.1	77.5	57	58.8	0	2	22	0.00	29.998 
23:05	75.1	75.1	77.5	58	59.3	0	2	22	0.00	29.998 
23:10	74.9	74.9	74.9	58	59.1	0	3	248	0.00	29.998 
23:15	74.7	74.7	74.7	58	58.9	1	3	248	0.00	30.001 
23:20	74.7	74.7	74.7	59	59.4	0	3	270	0.00	30.001 
23:25	74.6	74.6	74.6	58	58.8	0	2	270	0.00	30.001 
23:30	74.6	74.6	74.6	58	58.8	0	3	248	0.00	30.007 
23:35	74.6	74.6	74.6	58	58.8	1	2	248	0.00	30.007 
23:40	74.6	74.6	74.6	58	58.8	1	3	248	0.00	30.007 
23:45	74.7	74.7	74.7	58	58.9	1	5	270	0.00	30.012 
23:50	74.7	74.7	74.7	59	59.4	1	3	270	0.00	30.012 
23:55	74.4	74.4	74.4	59	59.1	0	1	270	0.00	30.012 

CoCoRaHS
IN-AL-39
A2 Web Hosting
Creative Commons License
GoDaddy
Look for:

loaded 2017-10-17 09:09:57 • last modified 2010-11-18 10:43:29
Privacy PolicyDisclaimer
• wx.awcolley.com is powered by PmWiki v.2002016 •
• all content (unless otherwise noted) © 2017 A W Colley